sensor_id;sensor_type;location;lat;lon;timestamp;temperature;humidity
5017;DHT22;2527;50.892;16.706;2023-07-20T00:02:23;20.50;99.90
5017;DHT22;2527;50.892;16.706;2023-07-20T00:04:49;20.50;99.90
5017;DHT22;2527;50.892;16.706;2023-07-20T00:07:14;20.50;99.90
5017;DHT22;2527;50.892;16.706;2023-07-20T00:09:40;20.50;99.90
5017;DHT22;2527;50.892;16.706;2023-07-20T00:12:06;20.40;99.90
5017;DHT22;2527;50.892;16.706;2023-07-20T00:14:31;20.40;99.90
5017;DHT22;2527;50.892;16.706;2023-07-20T00:16:57;20.40;99.90
5017;DHT22;2527;50.892;16.706;2023-07-20T00:19:26;20.30;99.90
5017;DHT22;2527;50.892;16.706;2023-07-20T00:21:53;20.30;99.90
5017;DHT22;2527;50.892;16.706;2023-07-20T00:24:19;20.20;99.90
5017;DHT22;2527;50.892;16.706;2023-07-20T00:26:45;20.20;99.90
5017;DHT22;2527;50.892;16.706;2023-07-20T00:29:11;20.10;99.90
5017;DHT22;2527;50.892;16.706;2023-07-20T00:31:37;20.00;99.90
5017;DHT22;2527;50.892;16.706;2023-07-20T00:34:03;19.90;99.90
5017;DHT22;2527;50.892;16.706;2023-07-20T00:36:29;19.80;99.90
5017;DHT22;2527;50.892;16.706;2023-07-20T00:38:54;19.80;99.90
5017;DHT22;2527;50.892;16.706;2023-07-20T00:41:20;19.70;99.90
5017;DHT22;2527;50.892;16.706;2023-07-20T00:43:46;19.70;99.90
5017;DHT22;2527;50.892;16.706;2023-07-20T00:46:12;19.70;99.90
5017;DHT22;2527;50.892;16.706;2023-07-20T00:48:37;19.60;99.90
5017;DHT22;2527;50.892;16.706;2023-07-20T00:51:03;19.50;99.90
5017;DHT22;2527;50.892;16.706;2023-07-20T00:53:30;19.40;99.90
5017;DHT22;2527;50.892;16.706;2023-07-20T00:55:56;19.40;99.90
5017;DHT22;2527;50.892;16.706;2023-07-20T00:58:21;19.40;99.90
5017;DHT22;2527;50.892;16.706;2023-07-20T01:00:47;19.40;99.90
5017;DHT22;2527;50.892;16.706;2023-07-20T01:03:13;19.40;99.90
5017;DHT22;2527;50.892;16.706;2023-07-20T01:05:51;19.40;99.90
5017;DHT22;2527;50.892;16.706;2023-07-20T01:11:03;19.40;99.90
5017;DHT22;2527;50.892;16.706;2023-07-20T01:13:30;19.40;99.90
5017;DHT22;2527;50.892;16.706;2023-07-20T01:16:02;19.30;99.90
5017;DHT22;2527;50.892;16.706;2023-07-20T01:18:27;19.30;99.90
5017;DHT22;2527;50.892;16.706;2023-07-20T01:21:01;19.20;99.90
5017;DHT22;2527;50.892;16.706;2023-07-20T01:31:44;19.20;99.90
5017;DHT22;2527;50.892;16.706;2023-07-20T01:34:11;19.20;99.90
5017;DHT22;2527;50.892;16.706;2023-07-20T01:36:40;19.20;99.90
5017;DHT22;2527;50.892;16.706;2023-07-20T01:39:07;19.10;99.90
5017;DHT22;2527;50.892;16.706;2023-07-20T01:41:33;19.10;99.90
5017;DHT22;2527;50.892;16.706;2023-07-20T01:43:59;19.10;99.90
5017;DHT22;2527;50.892;16.706;2023-07-20T01:46:25;19.10;99.90
5017;DHT22;2527;50.892;16.706;2023-07-20T01:48:51;19.00;99.90
5017;DHT22;2527;50.892;16.706;2023-07-20T01:51:17;19.00;99.90
5017;DHT22;2527;50.892;16.706;2023-07-20T01:53:45;19.00;99.90
5017;DHT22;2527;50.892;16.706;2023-07-20T01:56:11;18.90;99.90
5017;DHT22;2527;50.892;16.706;2023-07-20T01:58:38;18.90;99.90
5017;DHT22;2527;50.892;16.706;2023-07-20T02:01:04;18.90;99.90
5017;DHT22;2527;50.892;16.706;2023-07-20T02:03:29;18.90;99.90
5017;DHT22;2527;50.892;16.706;2023-07-20T02:05:55;18.90;99.90
5017;DHT22;2527;50.892;16.706;2023-07-20T02:08:22;18.90;99.90
5017;DHT22;2527;50.892;16.706;2023-07-20T02:10:48;18.80;99.90
5017;DHT22;2527;50.892;16.706;2023-07-20T02:13:14;18.90;99.90
5017;DHT22;2527;50.892;16.706;2023-07-20T02:15:41;18.90;99.90
5017;DHT22;2527;50.892;16.706;2023-07-20T02:18:07;18.80;99.90
5017;DHT22;2527;50.892;16.706;2023-07-20T02:20:33;18.80;99.90
5017;DHT22;2527;50.892;16.706;2023-07-20T02:22:58;18.80;99.90
5017;DHT22;2527;50.892;16.706;2023-07-20T02:25:25;18.80;99.90
5017;DHT22;2527;50.892;16.706;2023-07-20T02:27:51;18.80;99.90
5017;DHT22;2527;50.892;16.706;2023-07-20T02:30:18;18.80;99.90
5017;DHT22;2527;50.892;16.706;2023-07-20T02:32:44;18.80;99.90
5017;DHT22;2527;50.892;16.706;2023-07-20T02:35:14;18.80;99.90
5017;DHT22;2527;50.892;16.706;2023-07-20T02:37:40;18.80;99.90
5017;DHT22;2527;50.892;16.706;2023-07-20T02:40:06;18.80;99.90
5017;DHT22;2527;50.892;16.706;2023-07-20T02:42:32;18.80;99.90
5017;DHT22;2527;50.892;16.706;2023-07-20T02:44:58;18.80;99.90
5017;DHT22;2527;50.892;16.706;2023-07-20T02:47:24;18.80;99.90
5017;DHT22;2527;50.892;16.706;2023-07-20T02:49:50;18.70;99.90
5017;DHT22;2527;50.892;16.706;2023-07-20T02:52:16;18.80;99.90
5017;DHT22;2527;50.892;16.706;2023-07-20T02:54:41;18.70;99.90
5017;DHT22;2527;50.892;16.706;2023-07-20T02:57:12;18.80;99.90
5017;DHT22;2527;50.892;16.706;2023-07-20T02:59:38;18.80;99.90
5017;DHT22;2527;50.892;16.706;2023-07-20T03:02:04;18.80;99.90
5017;DHT22;2527;50.892;16.706;2023-07-20T03:04:29;18.70;99.90
5017;DHT22;2527;50.892;16.706;2023-07-20T03:06:55;18.70;99.90
5017;DHT22;2527;50.892;16.706;2023-07-20T03:09:21;18.80;99.90
5017;DHT22;2527;50.892;16.706;2023-07-20T03:11:47;18.70;99.90
5017;DHT22;2527;50.892;16.706;2023-07-20T03:14:12;18.70;99.90
5017;DHT22;2527;50.892;16.706;2023-07-20T03:16:38;18.80;99.90
5017;DHT22;2527;50.892;16.706;2023-07-20T03:19:04;18.70;99.90
5017;DHT22;2527;50.892;16.706;2023-07-20T03:21:30;18.80;99.90
5017;DHT22;2527;50.892;16.706;2023-07-20T03:23:55;19.40;99.90
5017;DHT22;2527;50.892;16.706;2023-07-20T03:26:21;18.80;99.90
5017;DHT22;2527;50.892;16.706;2023-07-20T03:28:46;18.80;99.90
5017;DHT22;2527;50.892;16.706;2023-07-20T03:31:12;18.80;99.90
5017;DHT22;2527;50.892;16.706;2023-07-20T03:33:40;18.80;99.90
5017;DHT22;2527;50.892;16.706;2023-07-20T03:36:05;18.80;99.90
5017;DHT22;2527;50.892;16.706;2023-07-20T03:38:32;18.80;99.90
5017;DHT22;2527;50.892;16.706;2023-07-20T03:40:59;18.80;99.90
5017;DHT22;2527;50.892;16.706;2023-07-20T03:43:26;18.90;99.90
5017;DHT22;2527;50.892;16.706;2023-07-20T03:45:53;18.90;99.90
5017;DHT22;2527;50.892;16.706;2023-07-20T03:48:20;18.90;99.90
5017;DHT22;2527;50.892;16.706;2023-07-20T03:50:47;18.90;99.90
5017;DHT22;2527;50.892;16.706;2023-07-20T03:53:13;19.00;99.90
5017;DHT22;2527;50.892;16.706;2023-07-20T03:55:40;19.00;99.90
5017;DHT22;2527;50.892;16.706;2023-07-20T03:58:06;19.00;99.90
5017;DHT22;2527;50.892;16.706;2023-07-20T04:00:33;19.10;99.90
5017;DHT22;2527;50.892;16.706;2023-07-20T04:03:00;19.10;99.90
5017;DHT22;2527;50.892;16.706;2023-07-20T04:05:26;19.10;99.90
5017;DHT22;2527;50.892;16.706;2023-07-20T04:07:51;19.30;99.90
5017;DHT22;2527;50.892;16.706;2023-07-20T04:10:17;19.40;99.90
5017;DHT22;2527;50.892;16.706;2023-07-20T04:12:43;19.50;99.90
5017;DHT22;2527;50.892;16.706;2023-07-20T04:15:10;19.80;99.90
5017;DHT22;2527;50.892;16.706;2023-07-20T04:17:35;19.80;99.90
5017;DHT22;2527;50.892;16.706;2023-07-20T04:20:01;19.80;99.90
5017;DHT22;2527;50.892;16.706;2023-07-20T04:22:28;19.70;99.90
5017;DHT22;2527;50.892;16.706;2023-07-20T04:24:53;19.70;99.90
5017;DHT22;2527;50.892;16.706;2023-07-20T04:27:20;19.60;99.90
5017;DHT22;2527;50.892;16.706;2023-07-20T04:29:45;19.50;99.90
5017;DHT22;2527;50.892;16.706;2023-07-20T04:32:11;19.50;99.90
5017;DHT22;2527;50.892;16.706;2023-07-20T04:34:36;19.50;99.90
5017;DHT22;2527;50.892;16.706;2023-07-20T04:37:03;19.50;99.90
5017;DHT22;2527;50.892;16.706;2023-07-20T04:39:29;19.40;99.90
5017;DHT22;2527;50.892;16.706;2023-07-20T04:41:54;19.40;99.90
5017;DHT22;2527;50.892;16.706;2023-07-20T04:44:20;19.40;99.90
5017;DHT22;2527;50.892;16.706;2023-07-20T04:46:45;19.40;99.90
5017;DHT22;2527;50.892;16.706;2023-07-20T04:49:11;19.40;99.90
5017;DHT22;2527;50.892;16.706;2023-07-20T04:51:38;19.40;99.90
5017;DHT22;2527;50.892;16.706;2023-07-20T04:54:03;19.40;99.90
5017;DHT22;2527;50.892;16.706;2023-07-20T04:56:31;19.30;99.90
5017;DHT22;2527;50.892;16.706;2023-07-20T04:58:57;19.30;99.90
5017;DHT22;2527;50.892;16.706;2023-07-20T05:01:23;19.30;99.90
5017;DHT22;2527;50.892;16.706;2023-07-20T05:03:48;19.30;99.90
5017;DHT22;2527;50.892;16.706;2023-07-20T05:06:16;19.30;99.90
5017;DHT22;2527;50.892;16.706;2023-07-20T05:08:41;19.30;99.90
5017;DHT22;2527;50.892;16.706;2023-07-20T05:11:07;19.30;99.90
5017;DHT22;2527;50.892;16.706;2023-07-20T05:13:33;19.30;99.90
5017;DHT22;2527;50.892;16.706;2023-07-20T05:15:58;19.30;99.90
5017;DHT22;2527;50.892;16.706;2023-07-20T05:18:24;19.30;99.90
5017;DHT22;2527;50.892;16.706;2023-07-20T05:20:50;18.70;99.90
5017;DHT22;2527;50.892;16.706;2023-07-20T05:23:19;19.30;99.90
5017;DHT22;2527;50.892;16.706;2023-07-20T05:25:46;19.30;99.90
5017;DHT22;2527;50.892;16.706;2023-07-20T05:28:12;19.30;99.90
5017;DHT22;2527;50.892;16.706;2023-07-20T05:30:38;19.40;99.90
5017;DHT22;2527;50.892;16.706;2023-07-20T05:33:03;19.30;99.90
5017;DHT22;2527;50.892;16.706;2023-07-20T05:35:29;19.40;99.90
5017;DHT22;2527;50.892;16.706;2023-07-20T05:37:55;19.40;99.90
5017;DHT22;2527;50.892;16.706;2023-07-20T05:40:20;19.40;99.90
5017;DHT22;2527;50.892;16.706;2023-07-20T05:42:46;19.50;99.90
5017;DHT22;2527;50.892;16.706;2023-07-20T05:45:13;20.10;99.90
5017;DHT22;2527;50.892;16.706;2023-07-20T05:47:39;20.90;99.90
5017;DHT22;2527;50.892;16.706;2023-07-20T05:50:05;21.00;99.90
5017;DHT22;2527;50.892;16.706;2023-07-20T05:52:32;21.00;99.90
5017;DHT22;2527;50.892;16.706;2023-07-20T05:54:57;20.90;99.90
5017;DHT22;2527;50.892;16.706;2023-07-20T05:57:24;21.10;99.90
5017;DHT22;2527;50.892;16.706;2023-07-20T05:59:49;21.30;99.90
5017;DHT22;2527;50.892;16.706;2023-07-20T06:02:15;21.50;99.90
5017;DHT22;2527;50.892;16.706;2023-07-20T06:04:41;21.60;99.90
5017;DHT22;2527;50.892;16.706;2023-07-20T06:07:06;21.80;99.90
5017;DHT22;2527;50.892;16.706;2023-07-20T06:09:33;21.70;99.90
5017;DHT22;2527;50.892;16.706;2023-07-20T06:11:59;21.50;99.90
5017;DHT22;2527;50.892;16.706;2023-07-20T06:14:24;21.40;99.90
5017;DHT22;2527;50.892;16.706;2023-07-20T06:16:50;21.30;99.90
5017;DHT22;2527;50.892;16.706;2023-07-20T06:19:15;21.20;99.90
5017;DHT22;2527;50.892;16.706;2023-07-20T06:21:41;21.10;99.90
5017;DHT22;2527;50.892;16.706;2023-07-20T06:24:07;21.00;99.90
5017;DHT22;2527;50.892;16.706;2023-07-20T06:26:33;20.90;99.90
5017;DHT22;2527;50.892;16.706;2023-07-20T06:29:04;20.90;99.90
5017;DHT22;2527;50.892;16.706;2023-07-20T06:31:31;20.90;99.90
5017;DHT22;2527;50.892;16.706;2023-07-20T06:33:57;20.90;99.90
5017;DHT22;2527;50.892;16.706;2023-07-20T06:36:30;20.90;99.90
5017;DHT22;2527;50.892;16.706;2023-07-20T06:38:56;20.90;99.90
5017;DHT22;2527;50.892;16.706;2023-07-20T06:41:22;21.10;99.90
5017;DHT22;2527;50.892;16.706;2023-07-20T06:43:47;21.20;99.90
5017;DHT22;2527;50.892;16.706;2023-07-20T06:46:13;21.40;99.90
5017;DHT22;2527;50.892;16.706;2023-07-20T06:48:39;21.50;99.90
5017;DHT22;2527;50.892;16.706;2023-07-20T06:51:04;21.50;99.90
5017;DHT22;2527;50.892;16.706;2023-07-20T06:53:31;21.50;99.90
5017;DHT22;2527;50.892;16.706;2023-07-20T06:55:57;21.50;99.90
5017;DHT22;2527;50.892;16.706;2023-07-20T06:58:23;21.40;99.90
5017;DHT22;2527;50.892;16.706;2023-07-20T07:00:48;21.40;99.90
5017;DHT22;2527;50.892;16.706;2023-07-20T07:03:14;21.40;99.90
5017;DHT22;2527;50.892;16.706;2023-07-20T07:05:40;21.50;99.90
5017;DHT22;2527;50.892;16.706;2023-07-20T07:08:06;21.70;99.90
5017;DHT22;2527;50.892;16.706;2023-07-20T07:10:36;21.90;99.90
5017;DHT22;2527;50.892;16.706;2023-07-20T07:13:01;21.90;99.90
5017;DHT22;2527;50.892;16.706;2023-07-20T07:15:27;22.00;99.90
5017;DHT22;2527;50.892;16.706;2023-07-20T07:17:53;21.90;99.90
5017;DHT22;2527;50.892;16.706;2023-07-20T07:20:19;21.90;99.90
5017;DHT22;2527;50.892;16.706;2023-07-20T07:22:45;21.90;99.90
5017;DHT22;2527;50.892;16.706;2023-07-20T07:25:12;22.10;99.90
5017;DHT22;2527;50.892;16.706;2023-07-20T07:27:38;22.30;99.90
5017;DHT22;2527;50.892;16.706;2023-07-20T07:30:04;22.50;99.90
5017;DHT22;2527;50.892;16.706;2023-07-20T07:32:29;22.70;99.90
5017;DHT22;2527;50.892;16.706;2023-07-20T07:34:55;22.80;99.90
5017;DHT22;2527;50.892;16.706;2023-07-20T07:37:23;22.80;99.90
5017;DHT22;2527;50.892;16.706;2023-07-20T07:39:50;22.80;99.90
5017;DHT22;2527;50.892;16.706;2023-07-20T07:42:15;22.90;99.90
5017;DHT22;2527;50.892;16.706;2023-07-20T07:44:41;22.90;99.90
5017;DHT22;2527;50.892;16.706;2023-07-20T07:47:07;22.90;99.90
5017;DHT22;2527;50.892;16.706;2023-07-20T07:49:33;22.80;99.90
5017;DHT22;2527;50.892;16.706;2023-07-20T07:51:59;22.60;99.90
5017;DHT22;2527;50.892;16.706;2023-07-20T07:54:27;22.60;99.90
5017;DHT22;2527;50.892;16.706;2023-07-20T07:56:53;22.50;99.90
5017;DHT22;2527;50.892;16.706;2023-07-20T07:59:20;22.60;99.90
5017;DHT22;2527;50.892;16.706;2023-07-20T08:01:46;22.60;99.90
5017;DHT22;2527;50.892;16.706;2023-07-20T08:04:12;22.60;99.90
5017;DHT22;2527;50.892;16.706;2023-07-20T08:06:39;22.70;99.90
5017;DHT22;2527;50.892;16.706;2023-07-20T08:09:04;22.80;99.90
5017;DHT22;2527;50.892;16.706;2023-07-20T08:11:30;22.90;99.90
5017;DHT22;2527;50.892;16.706;2023-07-20T08:13:58;22.90;99.90
5017;DHT22;2527;50.892;16.706;2023-07-20T08:16:24;23.10;99.90
5017;DHT22;2527;50.892;16.706;2023-07-20T08:18:50;23.30;99.90
5017;DHT22;2527;50.892;16.706;2023-07-20T08:21:16;23.40;99.90
5017;DHT22;2527;50.892;16.706;2023-07-20T08:23:42;23.50;99.90
5017;DHT22;2527;50.892;16.706;2023-07-20T08:26:08;23.60;99.90
5017;DHT22;2527;50.892;16.706;2023-07-20T08:28:33;23.60;99.90
5017;DHT22;2527;50.892;16.706;2023-07-20T08:30:59;23.80;99.90
5017;DHT22;2527;50.892;16.706;2023-07-20T08:33:25;23.90;99.90
5017;DHT22;2527;50.892;16.706;2023-07-20T08:35:50;24.00;99.90
5017;DHT22;2527;50.892;16.706;2023-07-20T08:38:16;23.60;99.90
5017;DHT22;2527;50.892;16.706;2023-07-20T08:40:42;24.00;99.90
5017;DHT22;2527;50.892;16.706;2023-07-20T08:43:08;24.00;99.90
5017;DHT22;2527;50.892;16.706;2023-07-20T08:45:33;23.90;99.90
5017;DHT22;2527;50.892;16.706;2023-07-20T08:48:00;23.90;99.90
5017;DHT22;2527;50.892;16.706;2023-07-20T08:50:26;23.90;99.90
5017;DHT22;2527;50.892;16.706;2023-07-20T08:52:54;23.90;99.90
5017;DHT22;2527;50.892;16.706;2023-07-20T08:55:20;23.90;99.90
5017;DHT22;2527;50.892;16.706;2023-07-20T08:57:50;24.00;99.90
5017;DHT22;2527;50.892;16.706;2023-07-20T09:00:19;24.10;99.90
5017;DHT22;2527;50.892;16.706;2023-07-20T09:02:45;24.20;99.90
5017;DHT22;2527;50.892;16.706;2023-07-20T09:05:11;24.20;99.90
5017;DHT22;2527;50.892;16.706;2023-07-20T09:07:39;24.30;99.90
5017;DHT22;2527;50.892;16.706;2023-07-20T09:10:04;24.30;99.90
5017;DHT22;2527;50.892;16.706;2023-07-20T09:12:41;24.40;99.90
5017;DHT22;2527;50.892;16.706;2023-07-20T09:15:07;24.50;99.90
5017;DHT22;2527;50.892;16.706;2023-07-20T09:17:33;24.60;99.90
5017;DHT22;2527;50.892;16.706;2023-07-20T09:20:02;24.70;99.90
5017;DHT22;2527;50.892;16.706;2023-07-20T09:22:33;24.70;99.90
5017;DHT22;2527;50.892;16.706;2023-07-20T09:24:59;24.80;99.90
5017;DHT22;2527;50.892;16.706;2023-07-20T09:27:34;24.90;99.90
5017;DHT22;2527;50.892;16.706;2023-07-20T09:30:01;25.00;99.90
5017;DHT22;2527;50.892;16.706;2023-07-20T09:32:27;25.00;99.90
5017;DHT22;2527;50.892;16.706;2023-07-20T09:34:52;25.00;99.90
5017;DHT22;2527;50.892;16.706;2023-07-20T09:37:21;25.10;99.90
5017;DHT22;2527;50.892;16.706;2023-07-20T09:39:53;25.10;99.90
5017;DHT22;2527;50.892;16.706;2023-07-20T09:42:19;25.20;99.90
5017;DHT22;2527;50.892;16.706;2023-07-20T09:44:46;25.20;99.90
5017;DHT22;2527;50.892;16.706;2023-07-20T09:47:12;25.30;99.90
5017;DHT22;2527;50.892;16.706;2023-07-20T09:49:40;25.30;99.90
5017;DHT22;2527;50.892;16.706;2023-07-20T09:52:09;25.40;99.90
5017;DHT22;2527;50.892;16.706;2023-07-20T09:54:37;25.40;99.90
5017;DHT22;2527;50.892;16.706;2023-07-20T09:57:03;25.40;99.90
5017;DHT22;2527;50.892;16.706;2023-07-20T09:59:30;25.50;99.90
5017;DHT22;2527;50.892;16.706;2023-07-20T10:01:57;25.50;99.90
5017;DHT22;2527;50.892;16.706;2023-07-20T10:04:24;25.50;99.90
5017;DHT22;2527;50.892;16.706;2023-07-20T10:06:50;25.50;99.90
5017;DHT22;2527;50.892;16.706;2023-07-20T10:09:18;25.60;99.90
5017;DHT22;2527;50.892;16.706;2023-07-20T10:11:48;25.60;99.90
5017;DHT22;2527;50.892;16.706;2023-07-20T10:14:15;25.50;99.90
5017;DHT22;2527;50.892;16.706;2023-07-20T10:16:43;25.50;99.90
5017;DHT22;2527;50.892;16.706;2023-07-20T10:19:17;25.50;99.90
5017;DHT22;2527;50.892;16.706;2023-07-20T10:21:51;25.50;99.90
5017;DHT22;2527;50.892;16.706;2023-07-20T10:24:19;25.40;99.90
5017;DHT22;2527;50.892;16.706;2023-07-20T10:26:45;25.30;99.90
5017;DHT22;2527;50.892;16.706;2023-07-20T10:29:11;25.30;99.90
5017;DHT22;2527;50.892;16.706;2023-07-20T10:31:37;25.30;99.90
5017;DHT22;2527;50.892;16.706;2023-07-20T10:34:03;25.20;99.90
5017;DHT22;2527;50.892;16.706;2023-07-20T10:36:29;25.10;99.90
5017;DHT22;2527;50.892;16.706;2023-07-20T10:38:55;25.00;99.90
5017;DHT22;2527;50.892;16.706;2023-07-20T10:41:27;25.00;99.90
5017;DHT22;2527;50.892;16.706;2023-07-20T10:43:57;25.00;99.90
5017;DHT22;2527;50.892;16.706;2023-07-20T10:49:09;25.20;99.90
5017;DHT22;2527;50.892;16.706;2023-07-20T10:51:39;25.30;99.90
5017;DHT22;2527;50.892;16.706;2023-07-20T10:54:07;25.30;99.90
5017;DHT22;2527;50.892;16.706;2023-07-20T10:56:32;25.40;99.90
5017;DHT22;2527;50.892;16.706;2023-07-20T10:58:58;25.40;99.90
5017;DHT22;2527;50.892;16.706;2023-07-20T11:01:28;25.30;99.90
5017;DHT22;2527;50.892;16.706;2023-07-20T11:03:57;25.30;99.90
5017;DHT22;2527;50.892;16.706;2023-07-20T11:09:10;25.40;99.90
5017;DHT22;2527;50.892;16.706;2023-07-20T11:11:38;25.40;99.90
5017;DHT22;2527;50.892;16.706;2023-07-20T11:14:04;25.30;99.90
5017;DHT22;2527;50.892;16.706;2023-07-20T11:18:59;25.20;99.90
5017;DHT22;2527;50.892;16.706;2023-07-20T11:21:25;25.20;99.90
5017;DHT22;2527;50.892;16.706;2023-07-20T11:23:51;25.20;99.90
5017;DHT22;2527;50.892;16.706;2023-07-20T11:26:17;25.20;99.90
5017;DHT22;2527;50.892;16.706;2023-07-20T11:28:50;25.20;99.90
5017;DHT22;2527;50.892;16.706;2023-07-20T11:31:20;25.10;99.90
5017;DHT22;2527;50.892;16.706;2023-07-20T11:33:46;25.10;99.90
5017;DHT22;2527;50.892;16.706;2023-07-20T11:36:12;25.00;99.90
5017;DHT22;2527;50.892;16.706;2023-07-20T11:38:39;25.00;99.90
5017;DHT22;2527;50.892;16.706;2023-07-20T11:41:07;24.90;99.90
5017;DHT22;2527;50.892;16.706;2023-07-20T11:43:32;25.00;99.90
5017;DHT22;2527;50.892;16.706;2023-07-20T11:45:58;25.00;99.90
5017;DHT22;2527;50.892;16.706;2023-07-20T11:48:24;24.90;99.90
5017;DHT22;2527;50.892;16.706;2023-07-20T11:50:50;24.90;99.90
5017;DHT22;2527;50.892;16.706;2023-07-20T11:53:15;24.80;99.90
5017;DHT22;2527;50.892;16.706;2023-07-20T11:55:41;24.80;99.90
5017;DHT22;2527;50.892;16.706;2023-07-20T11:58:08;24.70;99.90
5017;DHT22;2527;50.892;16.706;2023-07-20T12:00:34;24.70;99.90
5017;DHT22;2527;50.892;16.706;2023-07-20T12:03:00;24.70;99.90
5017;DHT22;2527;50.892;16.706;2023-07-20T12:05:26;24.70;99.90
5017;DHT22;2527;50.892;16.706;2023-07-20T12:07:51;24.60;99.90
5017;DHT22;2527;50.892;16.706;2023-07-20T12:10:23;24.50;99.90
5017;DHT22;2527;50.892;16.706;2023-07-20T12:12:49;24.50;99.90
5017;DHT22;2527;50.892;16.706;2023-07-20T12:15:16;24.50;99.90
5017;DHT22;2527;50.892;16.706;2023-07-20T12:17:42;24.50;99.90
5017;DHT22;2527;50.892;16.706;2023-07-20T12:20:08;24.50;99.90
5017;DHT22;2527;50.892;16.706;2023-07-20T12:22:38;24.50;99.90
5017;DHT22;2527;50.892;16.706;2023-07-20T12:25:07;24.50;99.90
5017;DHT22;2527;50.892;16.706;2023-07-20T12:27:35;24.50;99.90
5017;DHT22;2527;50.892;16.706;2023-07-20T12:30:01;24.50;99.90
5017;DHT22;2527;50.892;16.706;2023-07-20T12:32:29;24.50;99.90
5017;DHT22;2527;50.892;16.706;2023-07-20T12:34:55;24.50;99.90
5017;DHT22;2527;50.892;16.706;2023-07-20T12:37:20;24.50;99.90
5017;DHT22;2527;50.892;16.706;2023-07-20T12:39:46;24.50;99.90
5017;DHT22;2527;50.892;16.706;2023-07-20T12:42:12;24.50;99.90
5017;DHT22;2527;50.892;16.706;2023-07-20T12:44:40;24.50;99.90
5017;DHT22;2527;50.892;16.706;2023-07-20T12:47:06;24.50;99.90
5017;DHT22;2527;50.892;16.706;2023-07-20T12:49:31;24.60;99.90
5017;DHT22;2527;50.892;16.706;2023-07-20T12:51:57;24.60;99.90
5017;DHT22;2527;50.892;16.706;2023-07-20T12:54:23;24.50;99.90
5017;DHT22;2527;50.892;16.706;2023-07-20T12:56:48;24.50;99.90
5017;DHT22;2527;50.892;16.706;2023-07-20T12:59:14;24.50;99.90
5017;DHT22;2527;50.892;16.706;2023-07-20T13:01:40;24.50;99.90
5017;DHT22;2527;50.892;16.706;2023-07-20T13:04:07;24.50;99.90
5017;DHT22;2527;50.892;16.706;2023-07-20T13:06:34;24.40;99.90
5017;DHT22;2527;50.892;16.706;2023-07-20T13:09:01;24.40;99.90
5017;DHT22;2527;50.892;16.706;2023-07-20T13:11:26;24.30;99.90
5017;DHT22;2527;50.892;16.706;2023-07-20T13:13:52;24.30;99.90
5017;DHT22;2527;50.892;16.706;2023-07-20T13:16:18;24.30;99.90
5017;DHT22;2527;50.892;16.706;2023-07-20T13:18:43;24.30;99.90
5017;DHT22;2527;50.892;16.706;2023-07-20T13:21:09;24.20;99.90
5017;DHT22;2527;50.892;16.706;2023-07-20T13:23:39;24.20;99.90
5017;DHT22;2527;50.892;16.706;2023-07-20T13:26:05;24.10;99.90
5017;DHT22;2527;50.892;16.706;2023-07-20T13:28:31;24.20;99.90
5017;DHT22;2527;50.892;16.706;2023-07-20T13:30:57;24.10;99.90
5017;DHT22;2527;50.892;16.706;2023-07-20T13:33:22;24.10;99.90
5017;DHT22;2527;50.892;16.706;2023-07-20T13:35:49;24.10;99.90
5017;DHT22;2527;50.892;16.706;2023-07-20T13:38:14;24.10;99.90
5017;DHT22;2527;50.892;16.706;2023-07-20T13:40:41;24.10;99.90
5017;DHT22;2527;50.892;16.706;2023-07-20T13:43:07;24.10;99.90
5017;DHT22;2527;50.892;16.706;2023-07-20T13:45:33;24.10;99.90
5017;DHT22;2527;50.892;16.706;2023-07-20T13:47:59;24.10;99.90
5017;DHT22;2527;50.892;16.706;2023-07-20T13:50:24;24.10;99.90
5017;DHT22;2527;50.892;16.706;2023-07-20T13:52:50;24.10;99.90
5017;DHT22;2527;50.892;16.706;2023-07-20T13:55:16;24.10;99.90
5017;DHT22;2527;50.892;16.706;2023-07-20T13:57:41;24.10;99.90
5017;DHT22;2527;50.892;16.706;2023-07-20T14:00:07;24.10;99.90
5017;DHT22;2527;50.892;16.706;2023-07-20T14:02:36;24.00;99.90
5017;DHT22;2527;50.892;16.706;2023-07-20T14:05:02;24.00;99.90
5017;DHT22;2527;50.892;16.706;2023-07-20T14:07:28;24.00;99.90
5017;DHT22;2527;50.892;16.706;2023-07-20T14:09:53;24.00;99.90
5017;DHT22;2527;50.892;16.706;2023-07-20T14:12:19;24.00;99.90
5017;DHT22;2527;50.892;16.706;2023-07-20T14:14:45;24.00;99.90
5017;DHT22;2527;50.892;16.706;2023-07-20T14:17:11;24.10;99.90
5017;DHT22;2527;50.892;16.706;2023-07-20T14:19:37;24.10;99.90
5017;DHT22;2527;50.892;16.706;2023-07-20T14:22:03;24.10;99.90
5017;DHT22;2527;50.892;16.706;2023-07-20T14:24:29;24.10;99.90
5017;DHT22;2527;50.892;16.706;2023-07-20T14:26:55;24.10;99.90
5017;DHT22;2527;50.892;16.706;2023-07-20T14:29:21;24.10;99.90
5017;DHT22;2527;50.892;16.706;2023-07-20T14:31:46;24.20;99.90
5017;DHT22;2527;50.892;16.706;2023-07-20T14:34:18;24.20;99.90
5017;DHT22;2527;50.892;16.706;2023-07-20T14:36:45;24.10;99.90
5017;DHT22;2527;50.892;16.706;2023-07-20T14:39:10;24.10;99.90
5017;DHT22;2527;50.892;16.706;2023-07-20T14:41:36;24.10;99.90
5017;DHT22;2527;50.892;16.706;2023-07-20T14:44:02;24.10;99.90
5017;DHT22;2527;50.892;16.706;2023-07-20T14:46:28;24.10;99.90
5017;DHT22;2527;50.892;16.706;2023-07-20T14:48:53;24.10;99.90
5017;DHT22;2527;50.892;16.706;2023-07-20T14:51:19;24.10;99.90
5017;DHT22;2527;50.892;16.706;2023-07-20T14:53:44;24.00;99.90
5017;DHT22;2527;50.892;16.706;2023-07-20T14:56:10;24.00;99.90
5017;DHT22;2527;50.892;16.706;2023-07-20T14:58:36;24.00;99.90
5017;DHT22;2527;50.892;16.706;2023-07-20T15:01:01;23.90;99.90
5017;DHT22;2527;50.892;16.706;2023-07-20T15:03:27;23.90;99.90
5017;DHT22;2527;50.892;16.706;2023-07-20T15:05:53;23.90;99.90
5017;DHT22;2527;50.892;16.706;2023-07-20T15:08:18;23.90;99.90
5017;DHT22;2527;50.892;16.706;2023-07-20T15:10:45;23.80;99.90
5017;DHT22;2527;50.892;16.706;2023-07-20T15:13:12;23.80;99.90
5017;DHT22;2527;50.892;16.706;2023-07-20T15:15:37;23.80;99.90
5017;DHT22;2527;50.892;16.706;2023-07-20T15:18:03;23.80;99.90
5017;DHT22;2527;50.892;16.706;2023-07-20T15:20:29;23.80;99.90
5017;DHT22;2527;50.892;16.706;2023-07-20T15:22:57;23.80;99.90
5017;DHT22;2527;50.892;16.706;2023-07-20T15:25:23;23.80;99.90
5017;DHT22;2527;50.892;16.706;2023-07-20T15:27:49;23.80;99.90
5017;DHT22;2527;50.892;16.706;2023-07-20T15:30:15;23.80;99.90
5017;DHT22;2527;50.892;16.706;2023-07-20T15:32:41;23.80;99.90
5017;DHT22;2527;50.892;16.706;2023-07-20T15:35:09;23.80;99.90
5017;DHT22;2527;50.892;16.706;2023-07-20T15:37:35;23.80;99.90
5017;DHT22;2527;50.892;16.706;2023-07-20T15:40:02;23.80;99.90
5017;DHT22;2527;50.892;16.706;2023-07-20T15:42:30;23.70;99.90
5017;DHT22;2527;50.892;16.706;2023-07-20T15:44:56;23.70;99.90
5017;DHT22;2527;50.892;16.706;2023-07-20T15:47:23;23.70;99.90
5017;DHT22;2527;50.892;16.706;2023-07-20T15:49:49;23.70;99.90
5017;DHT22;2527;50.892;16.706;2023-07-20T15:55:02;23.60;99.90
5017;DHT22;2527;50.892;16.706;2023-07-20T15:57:29;23.60;99.90
5017;DHT22;2527;50.892;16.706;2023-07-20T15:59:55;23.60;99.90
5017;DHT22;2527;50.892;16.706;2023-07-20T16:02:21;23.60;99.90